createdAt,value
2022-08-20T00:00:36.253Z,24.46
2022-08-20T00:03:02.667Z,24.44
2022-08-20T00:05:29.070Z,24.46
2022-08-20T00:07:55.629Z,24.45
2022-08-20T00:10:21.839Z,24.46
2022-08-20T00:12:48.245Z,24.53
2022-08-20T00:15:14.630Z,24.64
2022-08-20T00:17:41.019Z,24.66
2022-08-20T00:20:07.508Z,24.63
2022-08-20T00:22:33.883Z,24.60
2022-08-20T00:25:00.253Z,24.58
2022-08-20T00:27:26.672Z,24.58
2022-08-20T00:29:53.098Z,24.56
2022-08-20T00:32:19.438Z,24.52
2022-08-20T00:34:45.841Z,24.50
2022-08-20T00:37:12.266Z,24.51
2022-08-20T00:39:38.649Z,24.55
2022-08-20T00:42:05.024Z,24.57
2022-08-20T00:44:31.412Z,24.57
2022-08-20T00:46:57.807Z,24.64
2022-08-20T00:49:24.201Z,24.62
2022-08-20T00:51:50.603Z,24.67
2022-08-20T00:54:16.966Z,24.69
2022-08-20T00:56:43.356Z,24.69
2022-08-20T00:59:09.750Z,24.64
2022-08-20T01:01:55.107Z,24.58
2022-08-20T01:04:02.672Z,24.63
2022-08-20T01:06:29.043Z,24.61
2022-08-20T01:08:55.422Z,24.55
2022-08-20T01:11:21.815Z,24.52
2022-08-20T01:13:48.229Z,24.49
2022-08-20T01:16:14.595Z,24.47
2022-08-20T01:18:41.067Z,24.41
2022-08-20T01:21:07.499Z,24.38
2022-08-20T01:23:33.863Z,24.38
2022-08-20T01:26:00.408Z,24.35
2022-08-20T01:28:26.729Z,24.33
2022-08-20T01:30:53.214Z,24.22
2022-08-20T01:33:19.561Z,24.20
2022-08-20T01:35:46.035Z,24.19
2022-08-20T01:38:12.438Z,24.19
2022-08-20T01:40:38.819Z,24.08
2022-08-20T01:43:05.200Z,24.05
2022-08-20T01:45:31.625Z,24.05
2022-08-20T01:47:58.210Z,24.04
2022-08-20T01:50:24.394Z,23.98
2022-08-20T01:52:50.790Z,23.98
2022-08-20T01:55:17.161Z,23.95
2022-08-20T01:57:43.563Z,23.91
2022-08-20T02:00:11.066Z,23.92
2022-08-20T02:02:36.343Z,23.86
2022-08-20T02:05:02.712Z,23.89
2022-08-20T02:07:29.155Z,23.89
2022-08-20T02:09:55.547Z,23.90
2022-08-20T02:12:21.933Z,23.89
2022-08-20T02:14:48.346Z,23.86
2022-08-20T02:17:14.741Z,23.85
2022-08-20T02:19:41.121Z,23.86
2022-08-20T02:22:07.492Z,23.88
2022-08-20T02:24:33.909Z,23.85
2022-08-20T02:27:00.305Z,23.83
2022-08-20T02:29:26.706Z,23.76
2022-08-20T02:32:32.717Z,23.76
2022-08-20T02:34:22.755Z,23.79
2022-08-20T02:36:45.862Z,23.92
2022-08-20T02:39:12.249Z,23.94
2022-08-20T02:41:38.611Z,23.92
2022-08-20T02:44:04.975Z,23.90
2022-08-20T02:46:31.370Z,23.92
2022-08-20T02:48:57.777Z,23.93
2022-08-20T02:51:28.642Z,23.92
2022-08-20T02:53:50.622Z,23.89
2022-08-20T02:56:17.005Z,23.87
2022-08-20T02:58:43.427Z,23.79
2022-08-20T03:01:09.852Z,23.69
2022-08-20T03:03:36.248Z,23.57
2022-08-20T03:06:02.690Z,23.52
2022-08-20T03:08:29.058Z,23.49
2022-08-20T03:10:55.438Z,23.43
2022-08-20T03:13:21.809Z,23.34
2022-08-20T03:15:48.168Z,23.35
2022-08-20T03:18:14.559Z,23.28
2022-08-20T03:20:40.927Z,23.26
2022-08-20T03:23:07.286Z,23.24
2022-08-20T03:25:33.671Z,23.28
2022-08-20T03:28:00.218Z,23.28
2022-08-20T03:30:26.427Z,23.20
2022-08-20T03:32:52.797Z,23.20
2022-08-20T03:35:19.190Z,23.22
2022-08-20T03:37:48.398Z,23.24
2022-08-20T03:40:11.981Z,23.31
2022-08-20T03:42:38.356Z,23.40
2022-08-20T03:45:04.739Z,23.40
2022-08-20T03:47:31.121Z,23.46
2022-08-20T03:49:57.501Z,23.38
2022-08-20T03:52:23.910Z,23.39
2022-08-20T03:54:50.283Z,23.41
2022-08-20T03:57:16.696Z,23.44
2022-08-20T03:59:43.074Z,23.42
2022-08-20T04:02:09.541Z,23.43
2022-08-20T04:04:35.831Z,23.39
2022-08-20T04:07:02.273Z,23.41
2022-08-20T04:09:28.646Z,23.45
2022-08-20T04:11:55.013Z,23.49
2022-08-20T04:14:21.385Z,23.55
2022-08-20T04:16:49.144Z,23.49
2022-08-20T04:19:14.174Z,23.61
2022-08-20T04:21:40.542Z,23.54
2022-08-20T04:24:06.903Z,23.53
2022-08-20T04:26:33.270Z,23.63
2022-08-20T04:28:59.701Z,23.59
2022-08-20T04:31:26.090Z,23.73
2022-08-20T04:33:52.456Z,23.78
2022-08-20T04:36:18.863Z,23.98
2022-08-20T04:38:48.490Z,24.04
2022-08-20T04:41:23.236Z,24.15
2022-08-20T04:43:38.159Z,24.27
2022-08-20T04:46:04.544Z,24.54
2022-08-20T04:48:30.904Z,25.05
2022-08-20T04:50:57.322Z,25.66
2022-08-20T04:53:25.916Z,26.03
2022-08-20T04:55:50.126Z,26.42
2022-08-20T04:58:16.541Z,26.47
2022-08-20T05:00:42.924Z,26.44
2022-08-20T05:03:09.285Z,25.95
2022-08-20T05:05:35.657Z,25.83
2022-08-20T05:08:02.048Z,26.40
2022-08-20T05:10:28.532Z,26.80
2022-08-20T05:12:57.136Z,27.11
2022-08-20T05:15:21.276Z,27.34
2022-08-20T05:17:47.675Z,27.44
2022-08-20T05:20:14.150Z,27.65
2022-08-20T05:22:40.545Z,27.67
2022-08-20T05:25:06.887Z,27.58
2022-08-20T05:27:33.347Z,27.61
2022-08-20T05:29:59.716Z,28.07
2022-08-20T05:32:26.111Z,28.28
2022-08-20T05:34:52.497Z,28.16
2022-08-20T05:37:18.855Z,27.96
2022-08-20T05:39:45.260Z,28.12
2022-08-20T05:42:11.630Z,28.58
2022-08-20T05:44:38.041Z,29.04
2022-08-20T05:47:04.430Z,29.34
2022-08-20T05:49:30.793Z,29.08
2022-08-20T05:51:57.263Z,29.11
2022-08-20T05:54:23.597Z,29.19
2022-08-20T05:56:49.962Z,29.72
2022-08-20T05:59:17.079Z,29.95
2022-08-20T06:01:42.990Z,30.02
2022-08-20T06:04:09.221Z,30.57
2022-08-20T06:06:44.574Z,30.14
2022-08-20T06:09:01.991Z,30.26
2022-08-20T06:11:28.423Z,30.22
2022-08-20T06:13:54.804Z,30.44
2022-08-20T06:16:21.211Z,30.83
2022-08-20T06:18:47.623Z,30.60
2022-08-20T06:21:14.030Z,30.66
2022-08-20T06:23:56.734Z,30.79
2022-08-20T06:26:06.831Z,30.91
2022-08-20T06:28:33.232Z,31.32
2022-08-20T06:30:59.682Z,31.60
2022-08-20T06:33:26.037Z,31.67
2022-08-20T06:35:52.467Z,31.59
2022-08-20T06:38:18.988Z,32.24
2022-08-20T06:40:45.429Z,32.19
2022-08-20T06:43:11.825Z,32.31
2022-08-20T06:45:38.246Z,32.41
2022-08-20T06:48:04.646Z,32.08
2022-08-20T06:50:30.991Z,32.33
2022-08-20T06:52:57.406Z,31.94
2022-08-20T06:55:23.785Z,32.02
2022-08-20T06:57:50.199Z,31.95
2022-08-20T07:00:16.612Z,32.58
2022-08-20T07:02:43.009Z,32.67
2022-08-20T07:05:09.387Z,32.68
2022-08-20T07:07:35.805Z,32.63
2022-08-20T07:10:02.240Z,32.97
2022-08-20T07:12:28.606Z,32.61
2022-08-20T07:14:55.015Z,32.24
2022-08-20T07:17:24.043Z,32.21
2022-08-20T07:19:47.877Z,32.53
2022-08-20T07:22:14.214Z,32.53
2022-08-20T07:24:41.995Z,32.90
2022-08-20T07:27:06.987Z,33.16
2022-08-20T07:29:33.516Z,33.32
2022-08-20T07:31:59.858Z,33.34
2022-08-20T07:34:26.328Z,33.76
2022-08-20T07:36:52.769Z,33.62
2022-08-20T07:39:19.163Z,33.70
2022-08-20T07:41:53.456Z,33.79
2022-08-20T07:44:11.950Z,33.63
2022-08-20T07:46:38.348Z,33.89
2022-08-20T07:49:04.711Z,33.42
2022-08-20T07:51:31.097Z,33.34
2022-08-20T07:53:57.461Z,33.86
2022-08-20T07:56:24.290Z,34.40
2022-08-20T07:58:50.532Z,34.41
2022-08-20T08:01:16.637Z,34.11
2022-08-20T08:03:50.363Z,33.77
2022-08-20T08:06:09.380Z,33.81
2022-08-20T08:08:35.760Z,34.53
2022-08-20T08:11:02.161Z,35.14
2022-08-20T08:13:28.546Z,34.80
2022-08-20T08:15:54.912Z,34.99
2022-08-20T08:18:21.275Z,35.22
2022-08-20T08:20:47.668Z,35.33
2022-08-20T08:23:24.695Z,35.10
2022-08-20T08:25:40.450Z,35.73
2022-08-20T08:28:06.815Z,35.19
2022-08-20T08:30:33.270Z,35.37
2022-08-20T08:32:59.633Z,35.88
2022-08-20T08:35:26.018Z,36.61
2022-08-20T08:37:54.531Z,36.40
2022-08-20T08:40:21.050Z,36.55
2022-08-20T08:42:47.363Z,36.14
2022-08-20T08:45:13.748Z,35.36
2022-08-20T08:47:40.117Z,35.00
2022-08-20T08:50:06.518Z,34.33
2022-08-20T08:52:32.903Z,34.22
2022-08-20T08:54:59.332Z,34.86
2022-08-20T08:57:25.715Z,35.34
2022-08-20T09:00:03.479Z,35.58
2022-08-20T09:02:18.636Z,35.31
2022-08-20T09:04:44.971Z,34.93
2022-08-20T09:07:11.351Z,34.86
2022-08-20T09:09:37.749Z,35.27
2022-08-20T09:12:04.111Z,36.02
2022-08-20T09:14:30.504Z,36.45
2022-08-20T09:16:56.987Z,36.05
2022-08-20T09:19:23.416Z,36.55
2022-08-20T09:21:49.858Z,36.49
2022-08-20T09:24:16.346Z,36.66
2022-08-20T09:26:42.713Z,36.84
2022-08-20T09:29:09.077Z,37.80
2022-08-20T09:31:35.470Z,38.09
2022-08-20T09:34:01.855Z,37.12
2022-08-20T09:36:31.739Z,37.08
2022-08-20T09:38:54.664Z,37.18
2022-08-20T09:41:21.025Z,37.63
2022-08-20T09:43:47.392Z,37.59
2022-08-20T09:46:13.759Z,37.11
2022-08-20T09:48:40.378Z,37.58
2022-08-20T09:51:06.741Z,37.67
2022-08-20T09:53:33.126Z,37.12
2022-08-20T09:55:59.547Z,36.97
2022-08-20T09:58:25.909Z,36.95
2022-08-20T10:00:52.296Z,37.39
2022-08-20T10:03:18.655Z,37.62
2022-08-20T10:05:45.026Z,37.14
2022-08-20T10:08:11.390Z,37.39
2022-08-20T10:10:37.762Z,37.59
2022-08-20T10:13:04.128Z,38.25
2022-08-20T10:15:30.603Z,38.46
2022-08-20T10:17:57.121Z,38.25
2022-08-20T10:20:23.381Z,38.58
2022-08-20T10:22:49.746Z,38.40
2022-08-20T10:25:16.113Z,38.44
2022-08-20T10:27:42.498Z,38.55
2022-08-20T10:30:08.934Z,38.91
2022-08-20T10:32:35.295Z,39.60
2022-08-20T10:35:01.664Z,39.07
2022-08-20T10:37:28.071Z,38.74
2022-08-20T10:39:54.524Z,38.66
2022-08-20T10:42:20.833Z,39.28
2022-08-20T10:44:47.256Z,39.28
2022-08-20T10:47:13.639Z,37.45
2022-08-20T10:49:40.001Z,36.90
2022-08-20T10:52:06.405Z,36.41
2022-08-20T10:54:32.773Z,36.26
2022-08-20T10:56:59.135Z,36.26
2022-08-20T10:59:25.541Z,36.32
2022-08-20T11:01:52.007Z,35.83
2022-08-20T11:04:18.298Z,35.09
2022-08-20T11:06:44.697Z,34.83
2022-08-20T11:09:11.061Z,35.08
2022-08-20T11:11:37.458Z,35.37
2022-08-20T11:14:03.915Z,35.70
2022-08-20T11:16:30.280Z,35.68
2022-08-20T11:18:56.665Z,35.62
2022-08-20T11:21:23.041Z,36.06
2022-08-20T11:23:49.404Z,36.08
2022-08-20T11:26:15.797Z,36.43
2022-08-20T11:28:42.190Z,36.70
2022-08-20T11:31:08.569Z,36.53
2022-08-20T11:33:35.027Z,36.04
2022-08-20T11:36:01.460Z,34.96
2022-08-20T11:38:27.829Z,34.90
2022-08-20T11:40:54.187Z,34.83
2022-08-20T11:43:20.660Z,35.10
2022-08-20T11:45:47.069Z,35.12
2022-08-20T11:48:13.437Z,35.05
2022-08-20T11:50:39.822Z,35.11
2022-08-20T11:53:06.249Z,34.89
2022-08-20T11:55:32.724Z,34.78
2022-08-20T11:58:00.143Z,34.84
2022-08-20T12:00:32.163Z,34.72
2022-08-20T12:02:51.855Z,34.77
2022-08-20T12:05:18.166Z,34.62
2022-08-20T12:07:44.549Z,34.51
2022-08-20T12:10:10.907Z,34.38
2022-08-20T12:12:37.315Z,34.33
2022-08-20T12:15:03.683Z,34.34
2022-08-20T12:17:30.107Z,34.18
2022-08-20T12:19:56.493Z,34.07
2022-08-20T12:22:24.705Z,33.91
2022-08-20T12:24:49.333Z,33.73
2022-08-20T12:27:15.694Z,33.72
2022-08-20T12:29:42.079Z,33.64
2022-08-20T12:32:08.461Z,33.49
2022-08-20T12:34:34.893Z,33.40
2022-08-20T12:37:01.253Z,33.36
2022-08-20T12:39:27.695Z,33.26
2022-08-20T12:41:54.075Z,32.99
2022-08-20T12:44:20.469Z,32.58
2022-08-20T12:46:46.833Z,28.38
2022-08-20T12:49:13.203Z,25.27
2022-08-20T12:51:39.575Z,24.39
2022-08-20T12:54:05.966Z,23.74
2022-08-20T12:56:32.426Z,23.18
2022-08-20T12:58:58.810Z,22.63
2022-08-20T13:01:25.331Z,22.36
2022-08-20T13:03:51.717Z,22.09
2022-08-20T13:06:18.133Z,22.10
2022-08-20T13:08:44.521Z,22.30
2022-08-20T13:11:10.920Z,22.14
2022-08-20T13:13:37.319Z,23.45
2022-08-20T13:16:03.692Z,28.53
2022-08-20T13:18:30.085Z,43.16
2022-08-20T13:20:56.493Z,31.14
2022-08-20T13:23:22.852Z,31.11
2022-08-20T13:25:49.248Z,29.10
2022-08-20T13:28:15.640Z,28.86
2022-08-20T13:30:42.073Z,28.60
2022-08-20T13:33:08.435Z,28.64
2022-08-20T13:35:34.838Z,28.78
2022-08-20T13:38:01.214Z,28.60
2022-08-20T13:40:27.703Z,28.57
2022-08-20T13:42:54.070Z,28.66
2022-08-20T13:45:20.431Z,28.58
2022-08-20T13:47:46.823Z,28.48
2022-08-20T13:50:13.255Z,28.18
2022-08-20T13:52:39.664Z,27.93
2022-08-20T13:55:06.396Z,27.85
2022-08-20T13:57:32.439Z,27.79
2022-08-20T13:59:58.809Z,27.92
2022-08-20T14:02:25.171Z,27.49
2022-08-20T14:04:51.623Z,27.06
2022-08-20T14:07:18.018Z,26.56
2022-08-20T14:09:44.386Z,26.68
2022-08-20T14:12:10.742Z,26.94
2022-08-20T14:14:37.113Z,27.19
2022-08-20T14:17:03.478Z,27.37
2022-08-20T14:19:29.869Z,27.53
2022-08-20T14:21:56.556Z,27.26
2022-08-20T14:24:22.985Z,27.33
2022-08-20T14:26:49.418Z,27.22
2022-08-20T14:29:15.787Z,26.97
2022-08-20T14:31:42.149Z,26.97
2022-08-20T14:34:08.546Z,26.86
2022-08-20T14:36:35.161Z,26.36
2022-08-20T14:39:01.517Z,25.67
2022-08-20T14:41:27.907Z,25.28
2022-08-20T14:43:54.341Z,25.30
2022-08-20T14:46:20.704Z,25.38
2022-08-20T14:48:47.214Z,25.38
2022-08-20T14:51:13.575Z,25.39
2022-08-20T14:53:40.743Z,25.43
2022-08-20T14:56:06.379Z,25.58
2022-08-20T14:58:32.761Z,25.61
2022-08-20T15:00:59.186Z,25.84
2022-08-20T15:03:25.507Z,26.09
2022-08-20T15:05:51.940Z,26.30
2022-08-20T15:08:18.367Z,26.36
2022-08-20T15:10:44.803Z,26.39
2022-08-20T15:13:11.238Z,26.17
2022-08-20T15:15:37.595Z,27.33
2022-08-20T15:18:03.960Z,26.24
2022-08-20T15:20:30.434Z,26.06
2022-08-20T15:22:57.014Z,26.09
2022-08-20T15:25:23.198Z,26.31
2022-08-20T15:27:49.598Z,26.39
2022-08-20T15:30:15.983Z,26.42
2022-08-20T15:32:42.353Z,26.38
2022-08-20T15:35:08.716Z,26.48
2022-08-20T15:37:35.088Z,26.37
2022-08-20T15:40:01.612Z,25.71
2022-08-20T15:42:27.835Z,25.62
2022-08-20T15:44:54.231Z,25.70
2022-08-20T15:47:20.692Z,25.50
2022-08-20T15:49:47.079Z,25.68
2022-08-20T15:52:13.513Z,25.97
2022-08-20T15:54:39.876Z,26.16
2022-08-20T15:57:06.315Z,26.22
2022-08-20T15:59:32.755Z,26.17
2022-08-20T16:01:59.276Z,26.12
2022-08-20T16:04:25.563Z,26.28
2022-08-20T16:06:51.936Z,26.70
2022-08-20T16:09:18.330Z,26.65
2022-08-20T16:11:44.688Z,26.80
2022-08-20T16:14:11.106Z,26.86
2022-08-20T16:16:37.521Z,26.01
2022-08-20T16:19:03.892Z,26.30
2022-08-20T16:21:30.319Z,26.78
2022-08-20T16:23:56.772Z,27.08
2022-08-20T16:26:23.210Z,27.15
2022-08-20T16:28:49.618Z,27.17
2022-08-20T16:31:16.085Z,27.79
2022-08-20T16:33:42.559Z,27.85
2022-08-20T16:36:08.953Z,28.00
2022-08-20T16:38:35.327Z,27.82
2022-08-20T16:41:01.813Z,27.78
2022-08-20T16:43:28.181Z,27.76
2022-08-20T16:45:54.570Z,27.47
2022-08-20T16:48:20.955Z,27.45
2022-08-20T16:50:47.378Z,27.46
2022-08-20T16:53:13.761Z,27.46
2022-08-20T16:55:40.149Z,27.32
2022-08-20T16:58:06.521Z,27.37
2022-08-20T17:00:32.953Z,27.54
2022-08-20T17:02:59.287Z,27.64
2022-08-20T17:05:25.668Z,27.67
2022-08-20T17:07:53.015Z,27.77
2022-08-20T17:10:18.407Z,27.50
2022-08-20T17:12:44.765Z,27.29
2022-08-20T17:15:11.153Z,27.16
2022-08-20T17:17:37.555Z,27.41
2022-08-20T17:20:03.914Z,27.38
2022-08-20T17:22:30.296Z,27.22
2022-08-20T17:24:56.712Z,27.05
2022-08-20T17:27:23.069Z,26.97
2022-08-20T17:29:49.439Z,26.70
2022-08-20T17:32:15.851Z,26.57
2022-08-20T17:34:42.234Z,26.46
2022-08-20T17:37:08.598Z,26.47
2022-08-20T17:39:35.007Z,26.40
2022-08-20T17:42:01.373Z,26.12
2022-08-20T17:44:27.756Z,26.05
2022-08-20T17:46:54.182Z,26.10
2022-08-20T17:49:20.568Z,26.00
2022-08-20T17:51:46.947Z,26.21
2022-08-20T17:54:13.320Z,26.26
2022-08-20T17:56:39.783Z,26.18
2022-08-20T17:59:06.175Z,26.25
2022-08-20T18:01:32.612Z,26.14
2022-08-20T18:03:58.966Z,26.10
2022-08-20T18:06:29.865Z,26.26
2022-08-20T18:08:51.741Z,26.12
2022-08-20T18:11:18.114Z,26.21
2022-08-20T18:13:45.010Z,26.32
2022-08-20T18:16:10.864Z,26.49
2022-08-20T18:18:37.256Z,26.33
2022-08-20T18:21:03.640Z,26.29
2022-08-20T18:23:30.024Z,26.05
2022-08-20T18:25:56.402Z,25.89
2022-08-20T18:28:22.794Z,25.77
2022-08-20T18:30:49.155Z,25.24
2022-08-20T18:33:15.544Z,24.93
2022-08-20T18:35:45.837Z,24.76
2022-08-20T18:38:08.370Z,24.72
2022-08-20T18:40:34.743Z,24.62
2022-08-20T18:43:01.127Z,24.25
2022-08-20T18:45:27.491Z,24.14
2022-08-20T18:47:53.864Z,23.81
2022-08-20T18:50:20.306Z,23.43
2022-08-20T18:52:46.688Z,22.97
2022-08-20T18:55:13.063Z,22.64
2022-08-20T18:57:41.719Z,22.38
2022-08-20T19:00:05.842Z,22.03
2022-08-20T19:02:32.215Z,22.28
2022-08-20T19:05:02.405Z,22.28
2022-08-20T19:07:25.002Z,22.16
2022-08-20T19:09:51.360Z,22.25
2022-08-20T19:12:17.784Z,22.26
2022-08-20T19:14:44.158Z,22.21
2022-08-20T19:17:10.524Z,22.25
2022-08-20T19:19:36.901Z,22.31
2022-08-20T19:22:03.300Z,22.29
2022-08-20T19:24:29.689Z,22.27
2022-08-20T19:26:56.056Z,22.32
2022-08-20T19:29:22.428Z,22.45
2022-08-20T19:31:48.815Z,22.59
2022-08-20T19:34:19.815Z,22.55
2022-08-20T19:36:41.584Z,22.55
2022-08-20T19:39:07.938Z,22.67
2022-08-20T19:41:34.348Z,22.57
2022-08-20T19:44:00.732Z,22.61
2022-08-20T19:46:27.117Z,22.52
2022-08-20T19:48:53.513Z,22.51
2022-08-20T19:51:19.897Z,22.52
2022-08-20T19:53:46.262Z,22.52
2022-08-20T19:56:12.681Z,22.46
2022-08-20T19:58:39.063Z,22.34
2022-08-20T20:01:05.491Z,22.43
2022-08-20T20:03:32.131Z,22.53
2022-08-20T20:05:58.226Z,22.37
2022-08-20T20:08:24.611Z,22.18
2022-08-20T20:10:50.997Z,22.03
2022-08-20T20:13:17.360Z,22.15
2022-08-20T20:15:43.762Z,22.38
2022-08-20T20:18:10.148Z,22.12
2022-08-20T20:20:36.548Z,22.03
2022-08-20T20:23:06.552Z,21.99
2022-08-20T20:25:29.312Z,21.82
2022-08-20T20:27:55.678Z,21.58
2022-08-20T20:30:22.889Z,21.69
2022-08-20T20:32:49.311Z,21.49
2022-08-20T20:35:15.734Z,21.50
2022-08-20T20:37:50.564Z,21.50
2022-08-20T20:40:08.513Z,21.45
2022-08-20T20:42:34.842Z,21.42
2022-08-20T20:45:01.259Z,21.45
2022-08-20T20:47:27.738Z,21.40
2022-08-20T20:49:54.126Z,21.28
2022-08-20T20:52:20.522Z,21.34
2022-08-20T20:54:46.907Z,21.34
2022-08-20T20:57:13.297Z,21.42
2022-08-20T20:59:39.954Z,21.40
2022-08-20T21:02:06.422Z,21.37
2022-08-20T21:04:32.740Z,21.25
2022-08-20T21:06:59.107Z,21.28
2022-08-20T21:09:25.498Z,21.30
2022-08-20T21:11:51.862Z,21.44
2022-08-20T21:14:18.320Z,21.33
2022-08-20T21:16:44.675Z,21.32
2022-08-20T21:19:11.076Z,21.29
2022-08-20T21:21:37.480Z,21.43
2022-08-20T21:24:03.846Z,21.74
2022-08-20T21:26:30.252Z,21.78
2022-08-20T21:28:56.617Z,21.85
2022-08-20T21:31:23.006Z,21.97
2022-08-20T21:33:49.432Z,21.95
2022-08-20T21:36:15.798Z,21.92
2022-08-20T21:38:42.200Z,21.76
2022-08-20T21:41:08.627Z,21.65
2022-08-20T21:43:35.006Z,21.78
2022-08-20T21:46:01.372Z,21.82
2022-08-20T21:48:27.773Z,21.85
2022-08-20T21:50:54.185Z,21.98
2022-08-20T21:53:20.550Z,21.99
2022-08-20T21:55:46.959Z,22.07
2022-08-20T21:58:13.343Z,21.97
2022-08-20T22:00:39.711Z,22.03
2022-08-20T22:03:06.082Z,22.04
2022-08-20T22:05:32.447Z,22.01
2022-08-20T22:07:58.834Z,22.05
2022-08-20T22:10:25.231Z,21.97
2022-08-20T22:12:51.583Z,21.96
2022-08-20T22:15:17.974Z,22.05
2022-08-20T22:17:44.339Z,22.02
2022-08-20T22:20:10.728Z,22.02
2022-08-20T22:22:37.112Z,22.27
2022-08-20T22:25:03.477Z,22.12
2022-08-20T22:27:29.840Z,21.94
2022-08-20T22:29:56.248Z,21.89
2022-08-20T22:32:22.638Z,21.98
2022-08-20T22:34:49.004Z,22.13
2022-08-20T22:37:15.414Z,22.28
2022-08-20T22:39:41.861Z,22.38
2022-08-20T22:42:08.186Z,22.25
2022-08-20T22:44:34.610Z,22.35
2022-08-20T22:47:00.989Z,22.41
2022-08-20T22:49:27.402Z,22.49
2022-08-20T22:51:53.761Z,22.46
2022-08-20T22:54:20.155Z,22.44
2022-08-20T22:56:46.565Z,22.23
2022-08-20T22:59:12.990Z,22.20
2022-08-20T23:01:39.423Z,22.20
2022-08-20T23:04:05.741Z,22.23
2022-08-20T23:06:32.144Z,22.25
2022-08-20T23:08:58.531Z,22.19
2022-08-20T23:11:24.938Z,22.15
2022-08-20T23:13:51.321Z,22.22
2022-08-20T23:16:17.688Z,22.19
2022-08-20T23:18:44.057Z,22.23
2022-08-20T23:21:10.489Z,22.18
2022-08-20T23:23:36.880Z,22.11
2022-08-20T23:26:03.285Z,22.07
2022-08-20T23:28:29.689Z,22.06
2022-08-20T23:30:56.110Z,21.90
2022-08-20T23:33:22.478Z,22.05
2022-08-20T23:35:48.865Z,22.09
2022-08-20T23:38:15.570Z,22.17
2022-08-20T23:40:41.942Z,22.17
2022-08-20T23:43:08.317Z,22.21
2022-08-20T23:45:34.937Z,22.33
2022-08-20T23:48:01.309Z,22.09
2022-08-20T23:50:27.710Z,22.00
2022-08-20T23:52:54.126Z,22.11
2022-08-20T23:55:20.460Z,22.22
2022-08-20T23:57:46.889Z,22.20
